Time;durP1;ratioP1;P1;durP2;ratioP2;P2;SDS_P1;SDS_P2;PMS_P1;PMS_P2;Temp;Humidity;BMP_temperature;BMP_pressure;BME280_temperature;BME280_humidity;BME280_pressure;Samples;Min_cycle;Max_cycle;Signal;HPM_P1;HPM_P2
2022/07/30 00:01:06;;;;;;;1.02;0.80;;;21.50;99.90;;;;;;5033137;28;20208;-67
2022/07/30 00:03:33;;;;;;;0.80;0.80;;;21.50;99.90;;;;;;5047740;28;20238;-68
2022/07/30 00:06:01;;;;;;;0.95;0.95;;;21.40;99.90;;;;;;5051328;28;20319;-68
2022/07/30 00:08:28;;;;;;;0.73;0.73;;;21.30;99.90;;;;;;5043153;28;20295;-67
2022/07/30 00:10:55;;;;;;;0.63;0.63;;;21.20;99.90;;;;;;5034354;28;20211;-67
2022/07/30 00:13:22;;;;;;;0.98;0.98;;;21.20;99.90;;;;;;5043087;28;20216;-67
2022/07/30 00:15:49;;;;;;;0.75;0.75;;;21.10;99.90;;;;;;5043709;28;20288;-67
2022/07/30 00:18:16;;;;;;;0.80;0.80;;;21.10;99.90;;;;;;5048148;28;20287;-67
2022/07/30 00:20:43;;;;;;;0.70;0.70;;;21.10;99.90;;;;;;5050879;28;20214;-67
2022/07/30 00:23:11;;;;;;;0.88;0.88;;;21.10;99.90;;;;;;5027967;28;20288;-66
2022/07/30 00:25:38;;;;;;;0.88;0.88;;;21.10;99.90;;;;;;5045066;28;20315;-65
2022/07/30 00:28:05;;;;;;;0.95;0.95;;;21.10;99.90;;;;;;5052695;28;20254;-65
2022/07/30 00:30:32;;;;;;;0.80;0.80;;;21.10;99.90;;;;;;5042856;28;20553;-66
2022/07/30 00:32:59;;;;;;;0.63;0.63;;;21.10;99.90;;;;;;5031099;28;20228;-67
2022/07/30 00:35:26;;;;;;;0.90;0.90;;;21.00;99.90;;;;;;5051827;28;20327;-67
2022/07/30 00:37:53;;;;;;;0.80;0.80;;;21.10;99.90;;;;;;5027300;28;20237;-67
2022/07/30 00:40:22;;;;;;;0.90;0.90;;;21.10;99.90;;;;;;5032428;28;20232;-66
2022/07/30 00:42:49;;;;;;;1.02;0.90;;;21.00;99.90;;;;;;5034114;28;20224;-67
2022/07/30 00:45:17;;;;;;;0.80;0.80;;;20.90;99.90;;;;;;5037943;28;20279;-66
2022/07/30 00:47:45;;;;;;;0.80;0.80;;;20.90;99.90;;;;;;5040856;28;20319;-66
2022/07/30 00:50:13;;;;;;;0.88;0.80;;;20.80;99.90;;;;;;5051207;28;20277;-66
2022/07/30 00:52:41;;;;;;;1.10;1.00;;;20.80;99.90;;;;;;5055815;28;20225;-66
2022/07/30 00:55:10;;;;;;;0.80;0.80;;;20.70;99.90;;;;;;5038363;28;20243;-66
2022/07/30 00:57:39;;;;;;;0.90;0.90;;;20.60;99.90;;;;;;5049220;28;20201;-67
2022/07/30 01:00:10;;;;;;;0.90;0.90;;;20.60;99.90;;;;;;5043282;28;20228;-67
2022/07/30 01:02:37;;;;;;;0.75;0.75;;;20.50;99.90;;;;;;5054940;28;20220;-67
2022/07/30 01:05:05;;;;;;;1.05;0.90;;;20.30;99.90;;;;;;5040011;28;20243;-67
2022/07/30 01:07:32;;;;;;;0.77;0.77;;;20.20;99.90;;;;;;5035043;28;20287;-66
2022/07/30 01:09:59;;;;;;;1.13;0.80;;;20.20;99.90;;;;;;5042311;28;20233;-67
2022/07/30 01:12:27;;;;;;;0.80;0.80;;;20.10;99.90;;;;;;5039010;28;20284;-66
2022/07/30 01:14:56;;;;;;;0.80;0.80;;;20.10;99.90;;;;;;5029220;28;20682;-66
2022/07/30 01:17:23;;;;;;;0.82;0.82;;;20.10;99.90;;;;;;5032783;28;20252;-67
2022/07/30 01:19:54;;;;;;;0.90;0.90;;;20.10;99.90;;;;;;5021258;28;20726;-66
2022/07/30 01:22:35;;;;;;;0.88;0.88;;;20.10;99.90;;;;;;5036352;28;20558;-66
2022/07/30 01:25:09;;;;;;;0.90;0.90;;;20.10;99.90;;;;;;5054773;28;20291;-67
2022/07/30 01:27:42;;;;;;;1.35;0.90;;;20.10;99.90;;;;;;5041656;28;20231;-67
2022/07/30 01:30:11;;;;;;;0.90;0.90;;;20.10;99.90;;;;;;5040269;28;20279;-67
2022/07/30 01:32:42;;;;;;;1.38;0.95;;;20.10;99.90;;;;;;5028361;28;20204;-67
2022/07/30 01:35:11;;;;;;;0.80;0.80;;;20.00;99.90;;;;;;5037806;28;20211;-67
2022/07/30 01:37:39;;;;;;;0.90;0.90;;;19.90;99.90;;;;;;5045784;28;20230;-67
2022/07/30 01:40:07;;;;;;;0.90;0.90;;;19.90;99.90;;;;;;5032373;28;20293;-67
2022/07/30 01:42:36;;;;;;;0.80;0.80;;;19.90;99.90;;;;;;5036892;28;20469;-67
2022/07/30 01:45:07;;;;;;;0.82;0.82;;;19.90;99.90;;;;;;5038807;28;20229;-67
2022/07/30 01:47:35;;;;;;;0.90;0.90;;;19.90;99.90;;;;;;5034342;28;20659;-66
2022/07/30 01:50:05;;;;;;;0.80;0.80;;;19.80;99.90;;;;;;5034410;28;20283;-68
2022/07/30 01:52:33;;;;;;;1.02;0.98;;;19.80;99.90;;;;;;5034834;28;20647;-68
2022/07/30 01:55:02;;;;;;;0.82;0.82;;;19.80;99.90;;;;;;5030960;28;20817;-67
2022/07/30 01:57:30;;;;;;;0.80;0.80;;;19.80;99.90;;;;;;5033513;28;20260;-67
2022/07/30 02:00:02;;;;;;;0.80;0.80;;;19.70;99.90;;;;;;5030792;28;20236;-67
2022/07/30 02:02:30;;;;;;;0.90;0.90;;;19.70;99.90;;;;;;5032678;28;20430;-67
2022/07/30 02:04:57;;;;;;;0.80;0.80;;;19.70;99.90;;;;;;5029963;28;20205;-69
2022/07/30 02:07:32;;;;;;;1.00;1.00;;;19.70;99.90;;;;;;5033398;28;20366;-68
2022/07/30 02:10:04;;;;;;;0.70;0.70;;;19.60;99.90;;;;;;5039927;28;20215;-69
2022/07/30 02:12:33;;;;;;;0.77;0.77;;;19.60;99.90;;;;;;5030339;28;20232;-68
2022/07/30 02:15:10;;;;;;;0.90;0.90;;;19.50;99.90;;;;;;5035024;28;20722;-67
2022/07/30 02:17:45;;;;;;;0.80;0.80;;;19.50;99.90;;;;;;5027917;28;20216;-68
2022/07/30 02:20:14;;;;;;;0.90;0.90;;;19.50;99.90;;;;;;5034888;28;20290;-67
2022/07/30 02:22:45;;;;;;;0.82;0.82;;;19.40;99.90;;;;;;5025471;28;20288;-67
2022/07/30 02:25:17;;;;;;;0.90;0.90;;;19.40;99.90;;;;;;5034078;28;20679;-67
2022/07/30 02:27:48;;;;;;;0.90;0.90;;;19.40;99.90;;;;;;5025305;28;20228;-67
2022/07/30 02:30:15;;;;;;;0.90;0.90;;;19.40;99.90;;;;;;5021482;28;20200;-66
2022/07/30 02:32:47;;;;;;;0.80;0.80;;;19.30;99.90;;;;;;5022653;28;20202;-67
2022/07/30 02:35:18;;;;;;;0.80;0.80;;;19.30;99.90;;;;;;5025229;28;20647;-69
2022/07/30 02:37:47;;;;;;;0.88;0.88;;;19.20;99.90;;;;;;5015214;28;20572;-66
2022/07/30 02:40:16;;;;;;;0.80;0.80;;;19.20;99.90;;;;;;5029926;28;20965;-66
2022/07/30 02:42:45;;;;;;;0.88;0.88;;;19.30;99.90;;;;;;5025954;28;20259;-66
2022/07/30 02:45:12;;;;;;;1.30;1.17;;;19.30;99.90;;;;;;5035586;28;20236;-67
2022/07/30 02:47:41;;;;;;;0.90;0.90;;;19.30;99.90;;;;;;5032024;28;20214;-67
2022/07/30 02:50:10;;;;;;;0.80;0.80;;;19.20;99.90;;;;;;5032730;28;20228;-67
2022/07/30 02:52:39;;;;;;;0.90;0.90;;;19.30;99.90;;;;;;5031440;28;20210;-68
2022/07/30 02:55:09;;;;;;;1.08;1.08;;;19.20;99.90;;;;;;5028122;28;20682;-67
2022/07/30 02:57:37;;;;;;;0.90;0.90;;;19.10;99.90;;;;;;5031889;28;20291;-66
2022/07/30 03:00:05;;;;;;;0.90;0.90;;;18.90;99.90;;;;;;5029057;28;20305;-67
2022/07/30 03:02:33;;;;;;;0.90;0.90;;;18.80;99.90;;;;;;5036429;28;20663;-67
2022/07/30 03:05:03;;;;;;;0.88;0.88;;;18.80;99.90;;;;;;5034224;28;20319;-69
2022/07/30 03:07:32;;;;;;;0.98;0.98;;;18.70;99.90;;;;;;5025107;28;20248;-67
2022/07/30 03:10:00;;;;;;;0.90;0.90;;;18.80;99.90;;;;;;5028181;28;20288;-68
2022/07/30 03:12:30;;;;;;;0.95;0.95;;;18.70;99.90;;;;;;5043700;28;20207;-68
2022/07/30 03:14:57;;;;;;;0.95;0.95;;;18.70;99.90;;;;;;5051409;28;20222;-69
2022/07/30 03:17:28;;;;;;;0.93;0.93;;;18.70;99.90;;;;;;5037377;28;20277;-69
2022/07/30 03:19:57;;;;;;;1.10;1.10;;;18.60;99.90;;;;;;5039477;28;20239;-67
2022/07/30 03:22:26;;;;;;;1.00;1.00;;;18.60;99.90;;;;;;5035535;28;20204;-67
2022/07/30 03:24:55;;;;;;;0.90;0.90;;;18.50;99.90;;;;;;5031531;28;20216;-67
2022/07/30 03:27:24;;;;;;;0.90;0.90;;;18.40;99.90;;;;;;5034025;28;20267;-67
2022/07/30 03:29:54;;;;;;;1.00;1.00;;;18.30;99.90;;;;;;5030383;28;20731;-69
2022/07/30 03:32:22;;;;;;;1.10;0.90;;;18.30;99.90;;;;;;5032368;28;20293;-69
2022/07/30 03:34:51;;;;;;;1.02;1.02;;;18.30;99.90;;;;;;5037766;28;20836;-68
2022/07/30 03:37:18;;;;;;;1.20;1.20;;;18.20;99.90;;;;;;5026718;28;20335;-67
2022/07/30 03:39:46;;;;;;;0.90;0.90;;;18.20;99.90;;;;;;5032085;28;20208;-69
2022/07/30 03:42:15;;;;;;;0.90;0.90;;;18.10;99.90;;;;;;5040235;28;20203;-68
2022/07/30 03:44:44;;;;;;;0.82;0.82;;;18.10;99.90;;;;;;5028285;28;20245;-68
2022/07/30 03:47:13;;;;;;;1.00;1.00;;;18.10;99.90;;;;;;5034272;28;20998;-68
2022/07/30 03:49:40;;;;;;;1.10;1.00;;;18.00;99.90;;;;;;5026427;28;20205;-66
2022/07/30 03:52:08;;;;;;;0.95;0.88;;;18.10;99.90;;;;;;5033582;28;20224;-69
2022/07/30 03:54:35;;;;;;;1.00;1.00;;;18.10;99.90;;;;;;5033743;28;20193;-68
2022/07/30 03:57:03;;;;;;;1.10;1.10;;;18.10;99.90;;;;;;5033126;28;20266;-67
2022/07/30 03:59:31;;;;;;;1.20;1.10;;;18.00;99.90;;;;;;5027825;28;20291;-67
2022/07/30 04:02:01;;;;;;;1.08;0.90;;;18.00;99.90;;;;;;5032604;28;20205;-67
2022/07/30 04:04:29;;;;;;;1.30;1.20;;;17.90;99.90;;;;;;5031875;28;20904;-67
2022/07/30 04:06:56;;;;;;;1.37;1.27;;;17.80;99.90;;;;;;5029802;28;20276;-68
2022/07/30 04:09:23;;;;;;;0.80;0.80;;;17.90;99.90;;;;;;5031522;28;20655;-68
2022/07/30 04:11:50;;;;;;;1.00;1.00;;;17.90;99.90;;;;;;5027358;28;20253;-67
2022/07/30 04:14:17;;;;;;;0.80;0.80;;;17.80;99.90;;;;;;5032678;28;20254;-66
2022/07/30 04:16:49;;;;;;;0.90;0.90;;;17.80;99.90;;;;;;5029898;28;20255;-68
2022/07/30 04:19:21;;;;;;;0.90;0.90;;;17.80;99.90;;;;;;5039446;28;20282;-67
2022/07/30 04:21:50;;;;;;;1.10;1.10;;;17.90;99.90;;;;;;5023049;28;20229;-68
2022/07/30 04:24:18;;;;;;;1.43;1.03;;;17.90;99.90;;;;;;5031134;28;20253;-66
2022/07/30 04:26:46;;;;;;;1.08;1.08;;;18.00;99.90;;;;;;5032818;28;20220;-69
2022/07/30 04:29:13;;;;;;;1.00;1.00;;;18.00;99.90;;;;;;5030001;28;20210;-69
2022/07/30 04:31:40;;;;;;;1.00;1.00;;;18.00;99.90;;;;;;5029692;28;20233;-67
2022/07/30 04:34:12;;;;;;;0.90;0.90;;;18.00;99.90;;;;;;5027706;28;20275;-68
2022/07/30 04:36:40;;;;;;;1.00;1.00;;;18.00;99.90;;;;;;5033004;28;20657;-67
2022/07/30 04:39:07;;;;;;;1.00;1.00;;;17.90;99.90;;;;;;5045261;28;20279;-69
2022/07/30 04:41:34;;;;;;;0.90;0.90;;;17.80;99.90;;;;;;5050920;28;20196;-68
2022/07/30 04:44:01;;;;;;;1.00;1.00;;;17.80;99.90;;;;;;5045854;28;20229;-69
2022/07/30 04:46:28;;;;;;;0.90;0.90;;;17.80;99.90;;;;;;5034611;28;20231;-67
2022/07/30 04:48:55;;;;;;;1.10;1.00;;;17.80;99.90;;;;;;5029214;28;20299;-69
2022/07/30 04:51:28;;;;;;;0.80;0.80;;;17.80;99.90;;;;;;5028076;28;20843;-66
2022/07/30 04:53:57;;;;;;;0.90;0.90;;;17.80;99.90;;;;;;5031556;28;20706;-67
2022/07/30 04:56:25;;;;;;;1.00;1.00;;;17.80;99.90;;;;;;5031028;28;20221;-67
2022/07/30 04:58:53;;;;;;;0.90;0.90;;;17.80;99.90;;;;;;5026855;28;20208;-67
2022/07/30 05:01:24;;;;;;;1.00;1.00;;;17.90;99.90;;;;;;5029129;28;20212;-66
2022/07/30 05:03:52;;;;;;;1.15;1.15;;;17.90;99.90;;;;;;5025016;28;20315;-67
2022/07/30 05:06:20;;;;;;;0.90;0.90;;;17.90;99.90;;;;;;5028128;28;20268;-67
2022/07/30 05:08:49;;;;;;;1.30;1.20;;;18.00;99.90;;;;;;5031906;28;20204;-67
2022/07/30 05:11:16;;;;;;;1.00;1.00;;;18.00;99.90;;;;;;5031673;28;20553;-67
2022/07/30 05:13:44;;;;;;;1.00;1.00;;;18.10;99.90;;;;;;5031341;28;20228;-68
2022/07/30 05:16:11;;;;;;;0.80;0.80;;;18.20;99.90;;;;;;5031539;28;20264;-68
2022/07/30 05:18:39;;;;;;;0.90;0.90;;;18.20;99.90;;;;;;5031942;28;20300;-69
2022/07/30 05:21:06;;;;;;;0.97;0.97;;;18.30;99.90;;;;;;5032100;28;20209;-68
2022/07/30 05:23:34;;;;;;;1.17;1.17;;;18.30;99.90;;;;;;5027364;28;20236;-67
2022/07/30 05:26:02;;;;;;;1.00;1.00;;;18.50;99.90;;;;;;5032358;28;20225;-67
2022/07/30 05:28:29;;;;;;;1.10;1.10;;;18.70;99.90;;;;;;5022012;28;20291;-67
2022/07/30 05:30:56;;;;;;;1.17;1.05;;;19.00;99.90;;;;;;5026119;28;20236;-66
2022/07/30 05:33:23;;;;;;;1.17;1.10;;;19.20;99.90;;;;;;5047771;28;20258;-66
2022/07/30 05:35:51;;;;;;;1.00;1.00;;;19.30;99.90;;;;;;5038927;28;20284;-67
2022/07/30 05:38:18;;;;;;;0.95;0.95;;;19.50;99.90;;;;;;5045736;28;20236;-67
2022/07/30 05:40:45;;;;;;;1.10;1.10;;;19.70;99.90;;;;;;5051737;28;20232;-67
2022/07/30 05:43:13;;;;;;;1.00;1.00;;;19.80;99.90;;;;;;5047685;28;20232;-68
2022/07/30 05:45:40;;;;;;;1.00;1.00;;;19.90;99.90;;;;;;5028707;28;20687;-68
2022/07/30 05:48:07;;;;;;;1.07;1.07;;;20.00;99.90;;;;;;5035617;28;20208;-68
2022/07/30 05:50:34;;;;;;;1.00;1.00;;;20.10;99.90;;;;;;5034546;28;20207;-68
2022/07/30 05:53:01;;;;;;;0.90;0.90;;;20.20;99.90;;;;;;5034780;28;20205;-66
2022/07/30 05:55:28;;;;;;;1.08;0.98;;;20.30;99.90;;;;;;5035864;28;20221;-65
2022/07/30 05:57:55;;;;;;;1.00;1.00;;;20.50;99.90;;;;;;5036023;28;20288;-66
2022/07/30 06:00:23;;;;;;;1.00;1.00;;;20.70;99.90;;;;;;5024246;28;20215;-68
2022/07/30 06:02:50;;;;;;;1.30;1.20;;;20.80;99.90;;;;;;5034687;28;20288;-68
2022/07/30 06:05:17;;;;;;;0.90;0.90;;;20.90;99.90;;;;;;5033591;28;20221;-67
2022/07/30 06:07:44;;;;;;;1.17;1.08;;;21.00;99.90;;;;;;5027483;28;20228;-67
2022/07/30 06:10:11;;;;;;;1.00;1.00;;;21.20;99.90;;;;;;5034702;28;20275;-66
2022/07/30 06:12:38;;;;;;;1.20;1.10;;;21.30;99.90;;;;;;5030720;28;20204;-68
2022/07/30 06:15:06;;;;;;;0.90;0.90;;;21.50;99.90;;;;;;5034809;28;20197;-66
2022/07/30 06:17:34;;;;;;;1.00;1.00;;;21.60;99.90;;;;;;5024113;28;20205;-68
2022/07/30 06:20:01;;;;;;;0.90;0.90;;;21.60;99.90;;;;;;5030929;28;20240;-67
2022/07/30 06:22:28;;;;;;;0.80;0.80;;;21.80;99.90;;;;;;5030152;28;20208;-66
2022/07/30 06:24:55;;;;;;;1.10;1.10;;;21.80;99.90;;;;;;5039797;28;20311;-66
2022/07/30 06:27:21;;;;;;;1.10;1.10;;;21.90;99.90;;;;;;5026627;28;20842;-66
2022/07/30 06:29:48;;;;;;;0.90;0.90;;;22.00;99.90;;;;;;5031695;28;20651;-68
2022/07/30 06:32:16;;;;;;;1.27;1.17;;;22.10;99.90;;;;;;5031873;28;20549;-67
2022/07/30 06:34:44;;;;;;;1.10;1.10;;;22.20;99.90;;;;;;5023724;28;20197;-68
2022/07/30 06:37:11;;;;;;;1.10;1.10;;;22.30;99.90;;;;;;5023584;28;20323;-66
2022/07/30 06:39:38;;;;;;;1.10;1.10;;;22.50;99.90;;;;;;5027561;28;20292;-68
2022/07/30 06:42:05;;;;;;;1.15;1.02;;;22.60;99.90;;;;;;5028185;28;20292;-66
2022/07/30 06:44:32;;;;;;;1.02;1.02;;;22.60;99.90;;;;;;5037846;28;20220;-68
2022/07/30 06:46:59;;;;;;;0.90;0.90;;;22.70;99.90;;;;;;5039776;28;20283;-67
2022/07/30 06:49:26;;;;;;;1.00;0.90;;;22.80;99.90;;;;;;5037344;28;20204;-67
2022/07/30 06:51:54;;;;;;;0.95;0.95;;;22.80;99.90;;;;;;5051951;28;20242;-66
2022/07/30 06:54:21;;;;;;;0.95;0.95;;;23.00;99.90;;;;;;5037813;28;20201;-68
2022/07/30 06:56:48;;;;;;;1.10;0.88;;;23.10;99.90;;;;;;5039005;28;20658;-67
2022/07/30 06:59:15;;;;;;;1.10;1.10;;;23.30;99.90;;;;;;5040318;28;20232;-66
2022/07/30 07:01:42;;;;;;;1.00;1.00;;;23.50;99.90;;;;;;5025978;28;20303;-67
2022/07/30 07:04:09;;;;;;;1.70;1.20;;;23.60;99.90;;;;;;5036909;28;20239;-68
2022/07/30 07:06:36;;;;;;;1.10;1.10;;;23.80;99.90;;;;;;5033128;28;20229;-66
2022/07/30 07:09:04;;;;;;;1.20;1.10;;;23.90;99.90;;;;;;5035417;28;20209;-66
2022/07/30 07:11:31;;;;;;;1.10;1.00;;;24.10;99.90;;;;;;5044676;28;20209;-66
2022/07/30 07:13:58;;;;;;;1.10;1.10;;;24.30;99.90;;;;;;5034913;28;20645;-67
2022/07/30 07:16:25;;;;;;;1.33;1.30;;;24.40;99.90;;;;;;5033994;28;20260;-67
2022/07/30 07:18:53;;;;;;;1.15;1.15;;;24.60;99.90;;;;;;5033845;28;20201;-66
2022/07/30 07:21:21;;;;;;;1.10;1.10;;;24.70;99.90;;;;;;5028238;28;20354;-69
2022/07/30 07:23:48;;;;;;;2.38;1.40;;;24.70;99.90;;;;;;5031701;28;20367;-67
2022/07/30 07:26:17;;;;;;;1.27;1.13;;;24.60;99.90;;;;;;5032405;28;20307;-67
2022/07/30 07:28:44;;;;;;;1.30;1.20;;;24.50;99.90;;;;;;5029991;28;20217;-67
2022/07/30 07:31:11;;;;;;;0.98;0.98;;;24.60;99.90;;;;;;5034071;28;20235;-68
2022/07/30 07:33:39;;;;;;;1.63;1.10;;;24.60;99.90;;;;;;5034764;28;20200;-68
2022/07/30 07:36:06;;;;;;;2.08;1.23;;;24.80;99.90;;;;;;5035571;28;20236;-67
2022/07/30 07:38:33;;;;;;;1.10;1.10;;;24.90;99.90;;;;;;5029298;28;20197;-67
2022/07/30 07:41:00;;;;;;;1.33;1.10;;;25.00;99.90;;;;;;5034147;28;20728;-67
2022/07/30 07:43:29;;;;;;;1.30;1.20;;;25.00;99.90;;;;;;5035054;28;20258;-67
2022/07/30 07:45:55;;;;;;;1.10;1.10;;;25.10;99.90;;;;;;5033672;28;20256;-68
2022/07/30 07:48:23;;;;;;;1.38;1.27;;;25.20;99.90;;;;;;5030150;28;20248;-69
2022/07/30 07:50:50;;;;;;;0.93;0.93;;;25.30;99.90;;;;;;5035462;28;20666;-68
2022/07/30 07:53:16;;;;;;;1.75;1.30;;;25.40;99.90;;;;;;5036203;28;20291;-68
2022/07/30 07:55:43;;;;;;;1.10;1.00;;;25.50;99.90;;;;;;5033265;28;20220;-67
2022/07/30 07:58:12;;;;;;;0.90;0.90;;;25.50;99.90;;;;;;5030362;28;20200;-67
2022/07/30 08:00:41;;;;;;;1.08;1.08;;;25.60;99.90;;;;;;5031982;28;20201;-67
2022/07/30 08:03:08;;;;;;;1.25;1.23;;;25.70;99.90;;;;;;5032506;28;20239;-67
2022/07/30 08:05:35;;;;;;;0.85;0.85;;;25.80;99.90;;;;;;5030133;28;20307;-67
2022/07/30 08:08:02;;;;;;;2.17;1.10;;;25.90;99.90;;;;;;5032576;28;20209;-69
2022/07/30 08:10:29;;;;;;;1.00;1.00;;;26.00;99.90;;;;;;5032402;28;20292;-69
2022/07/30 08:12:56;;;;;;;1.10;1.10;;;26.10;99.90;;;;;;5030228;28;20296;-69
2022/07/30 08:15:23;;;;;;;0.93;0.93;;;26.00;99.90;;;;;;5031290;28;20729;-69
2022/07/30 08:17:52;;;;;;;1.23;1.23;;;26.00;99.90;;;;;;5029496;28;20580;-68
2022/07/30 08:20:21;;;;;;;1.00;1.00;;;25.90;99.90;;;;;;5028286;28;20531;-68
2022/07/30 08:22:48;;;;;;;0.90;0.80;;;25.90;99.90;;;;;;5028783;28;20262;-69
2022/07/30 08:25:15;;;;;;;1.10;1.10;;;26.00;99.90;;;;;;5031127;28;20689;-67
2022/07/30 08:27:44;;;;;;;1.10;1.10;;;26.00;99.90;;;;;;5028221;28;20232;-68
2022/07/30 08:30:12;;;;;;;1.00;1.00;;;26.10;99.90;;;;;;5031419;28;20300;-67
2022/07/30 08:32:39;;;;;;;1.20;1.10;;;26.20;99.90;;;;;;5031277;28;20204;-67
2022/07/30 08:35:08;;;;;;;1.30;1.20;;;26.20;99.90;;;;;;5029760;28;20324;-68
2022/07/30 08:37:35;;;;;;;1.20;1.08;;;26.20;99.90;;;;;;5024164;28;20642;-69
2022/07/30 08:40:03;;;;;;;2.70;1.85;;;26.10;99.90;;;;;;5030739;28;20232;-71
2022/07/30 08:42:31;;;;;;;0.90;0.90;;;26.30;99.90;;;;;;5029389;28;20755;-68
2022/07/30 08:44:57;;;;;;;0.98;0.98;;;26.30;99.90;;;;;;5037909;28;20232;-68
2022/07/30 08:47:31;;;;;;;1.05;1.05;;;26.60;99.90;;;;;;5039994;28;20270;-68
2022/07/30 08:50:03;;;;;;;0.93;0.93;;;26.80;99.90;;;;;;5037100;28;20612;-67
2022/07/30 08:52:32;;;;;;;1.17;1.10;;;26.80;99.90;;;;;;5037834;28;20262;-68
2022/07/30 08:55:00;;;;;;;0.98;0.75;;;26.60;99.90;;;;;;5037332;28;20537;-69
2022/07/30 08:57:30;;;;;;;0.88;0.88;;;26.80;99.90;;;;;;5024259;28;20225;-68
2022/07/30 08:59:57;;;;;;;0.95;0.90;;;26.90;99.90;;;;;;5030693;28;20209;-67
2022/07/30 09:02:25;;;;;;;1.08;1.00;;;26.90;99.90;;;;;;5031964;28;20655;-67
2022/07/30 09:04:52;;;;;;;0.90;0.90;;;26.90;99.90;;;;;;5028925;28;20580;-68
2022/07/30 09:07:19;;;;;;;1.00;1.00;;;26.80;99.90;;;;;;5028114;28;20308;-69
2022/07/30 09:09:47;;;;;;;2.83;0.95;;;27.00;99.90;;;;;;5034748;28;20228;-69
2022/07/30 09:12:34;;;;;;;0.80;0.80;;;27.10;99.90;;;;;;5035152;28;20255;-67
2022/07/30 09:15:02;;;;;;;1.60;1.00;;;27.30;99.90;;;;;;5041198;28;20263;-68
2022/07/30 09:17:42;;;;;;;0.90;0.90;;;27.30;99.90;;;;;;5034829;28;20695;-69
2022/07/30 09:20:10;;;;;;;2.38;1.05;;;27.40;99.90;;;;;;5032113;28;20255;-69
2022/07/30 09:22:43;;;;;;;1.17;1.00;;;27.50;99.90;;;;;;5027212;28;20236;-69
2022/07/30 09:25:11;;;;;;;1.23;1.00;;;27.70;99.90;;;;;;5029839;28;20295;-68
2022/07/30 09:27:46;;;;;;;0.90;0.90;;;27.70;99.90;;;;;;5026851;28;20664;-70
2022/07/30 09:30:13;;;;;;;0.82;0.82;;;27.90;99.90;;;;;;5029537;28;20236;-70
2022/07/30 09:32:51;;;;;;;0.93;0.90;;;27.80;99.90;;;;;;5035935;28;20221;-67
2022/07/30 09:35:19;;;;;;;1.13;1.02;;;27.80;99.90;;;;;;5034785;28;20256;-67
2022/07/30 09:37:46;;;;;;;1.05;1.05;;;28.00;99.90;;;;;;5034603;28;20309;-68
2022/07/30 09:40:18;;;;;;;1.20;1.10;;;27.90;99.90;;;;;;5033898;28;20219;-70
2022/07/30 09:42:45;;;;;;;0.90;0.90;;;27.90;99.90;;;;;;5032824;28;20629;-68
2022/07/30 09:45:14;;;;;;;0.90;0.80;;;27.90;99.90;;;;;;5031002;28;20228;-71
2022/07/30 09:47:43;;;;;;;0.75;0.75;;;27.70;99.90;;;;;;5033228;28;20208;-70
2022/07/30 09:50:12;;;;;;;1.00;0.98;;;27.70;99.90;;;;;;5031066;28;20255;-70
2022/07/30 09:52:42;;;;;;;1.13;0.85;;;27.80;99.90;;;;;;5026383;28;20581;-70
2022/07/30 09:55:10;;;;;;;0.98;0.82;;;27.90;99.90;;;;;;5027805;28;20225;-71
2022/07/30 09:57:55;;;;;;;1.40;0.90;;;27.90;99.90;;;;;;5026380;28;20240;-70
2022/07/30 10:00:24;;;;;;;4.13;0.98;;;27.70;99.90;;;;;;5026872;28;20201;-71
2022/07/30 10:02:51;;;;;;;2.15;0.93;;;27.80;99.90;;;;;;5035761;28;20223;-71
2022/07/30 10:05:19;;;;;;;1.38;1.27;;;27.90;99.90;;;;;;5040616;28;20223;-69
2022/07/30 10:07:51;;;;;;;0.70;0.70;;;28.10;99.90;;;;;;5037288;28;20197;-71
2022/07/30 10:10:20;;;;;;;1.42;0.90;;;28.30;99.90;;;;;;5045358;28;20714;-69
2022/07/30 10:12:53;;;;;;;1.88;0.88;;;28.50;99.90;;;;;;5047377;28;20260;-70
2022/07/30 10:15:21;;;;;;;1.75;0.85;;;28.70;99.90;;;;;;5051145;28;20256;-70
2022/07/30 10:17:48;;;;;;;1.00;1.00;;;28.90;99.90;;;;;;5031535;28;20197;-70
2022/07/30 10:20:15;;;;;;;1.25;0.77;;;29.10;99.90;;;;;;5032155;28;20201;-70
2022/07/30 10:22:43;;;;;;;0.85;0.85;;;28.90;99.90;;;;;;5018204;28;20212;-70
2022/07/30 10:25:10;;;;;;;2.72;1.10;;;28.50;99.90;;;;;;5024038;28;20206;-68
2022/07/30 10:27:39;;;;;;;1.13;1.00;;;28.60;99.90;;;;;;5021776;28;20202;-68
2022/07/30 10:30:08;;;;;;;0.80;0.80;;;28.80;99.90;;;;;;5034221;28;20259;-68
2022/07/30 10:32:37;;;;;;;0.90;0.90;;;29.10;99.90;;;;;;5034314;28;20212;-67
2022/07/30 10:35:05;;;;;;;1.10;1.00;;;29.50;99.90;;;;;;5032250;28;20200;-70
2022/07/30 10:37:35;;;;;;;0.70;0.70;;;29.50;99.90;;;;;;5033221;28;20319;-69
2022/07/30 10:40:10;;;;;;;0.90;0.90;;;29.50;99.90;;;;;;5033983;28;20201;-68
2022/07/30 10:43:02;;;;;;;0.80;0.80;;;29.40;99.90;;;;;;5033385;28;20232;-69
2022/07/30 10:45:43;;;;;;;1.10;0.90;;;29.10;99.90;;;;;;5030939;28;20298;-69
2022/07/30 10:48:10;;;;;;;0.85;0.85;;;29.10;99.90;;;;;;5026325;28;20284;-68
2022/07/30 10:50:51;;;;;;;0.98;0.88;;;29.00;99.90;;;;;;5033006;28;20666;-68
2022/07/30 10:53:34;;;;;;;0.80;0.80;;;28.80;99.90;;;;;;5029817;28;20231;-69
2022/07/30 10:56:22;;;;;;;0.90;0.90;;;28.80;99.90;;;;;;5031066;28;20224;-69
2022/07/30 10:59:04;;;;;;;2.80;0.90;;;29.10;99.90;;;;;;5023830;28;20626;-69
2022/07/30 11:02:09;;;;;;;0.80;0.80;;;29.40;99.90;;;;;;5041407;28;20260;-70
2022/07/30 11:04:36;;;;;;;0.88;0.85;;;29.10;99.90;;;;;;5036738;28;20291;-70
2022/07/30 11:07:33;;;;;;;0.90;0.70;;;29.30;99.90;;;;;;5038943;28;20232;-70
2022/07/30 11:10:01;;;;;;;1.10;1.00;;;29.20;99.90;;;;;;4950546;28;20290;-69
2022/07/30 11:12:53;;;;;;;0.85;0.85;;;29.40;99.90;;;;;;5013464;28;20259;-68
2022/07/30 11:15:21;;;;;;;0.70;0.70;;;29.50;99.90;;;;;;5029723;28;20208;-70
2022/07/30 11:18:07;;;;;;;0.70;0.70;;;29.80;99.90;;;;;;5028993;28;20207;-70
2022/07/30 11:20:35;;;;;;;1.00;0.90;;;30.20;99.90;;;;;;5033102;28;20283;-70
2022/07/30 11:23:37;;;;;;;0.70;0.70;;;30.40;99.90;;;;;;5032198;28;20201;-69
2022/07/30 11:26:05;;;;;;;0.80;0.80;;;30.60;99.90;;;;;;5029333;28;20260;-71
2022/07/30 11:28:40;;;;;;;0.80;0.80;;;30.70;99.90;;;;;;5031784;28;20694;-70
2022/07/30 11:31:27;;;;;;;1.10;1.10;;;30.80;99.90;;;;;;5035597;28;20223;-70
2022/07/30 11:34:29;;;;;;;0.93;0.93;;;30.80;99.90;;;;;;5031366;28;20287;-70
2022/07/30 11:37:07;;;;;;;1.08;1.08;;;30.70;99.90;;;;;;5025353;28;20323;-70
2022/07/30 11:40:06;;;;;;;0.90;0.90;;;30.70;99.90;;;;;;5025262;28;20201;-70
2022/07/30 11:42:35;;;;;;;0.82;0.82;;;30.20;99.90;;;;;;5034484;28;20542;-70
2022/07/30 11:45:28;;;;;;;0.90;0.90;;;29.80;99.90;;;;;;5031475;28;20211;-70
2022/07/30 11:47:58;;;;;;;0.70;0.70;;;30.20;99.90;;;;;;5032853;28;20212;-69
2022/07/30 11:50:29;;;;;;;0.80;0.80;;;30.10;99.90;;;;;;5034030;28;20219;-70
2022/07/30 11:52:58;;;;;;;1.83;0.95;;;30.30;99.90;;;;;;5033592;28;20207;-69
2022/07/30 11:55:27;;;;;;;0.98;0.98;;;29.90;99.90;;;;;;5022498;28;20657;-69
2022/07/30 11:57:54;;;;;;;3.75;1.38;;;29.80;99.90;;;;;;5027240;28;20711;-69
2022/07/30 12:00:22;;;;;;;1.00;0.90;;;29.80;99.90;;;;;;5028519;28;20568;-69
2022/07/30 12:02:50;;;;;;;0.70;0.70;;;29.80;99.90;;;;;;5033603;28;20215;-70
2022/07/30 12:05:24;;;;;;;0.80;0.80;;;29.80;99.90;;;;;;5024125;28;20725;-70
2022/07/30 12:07:57;;;;;;;2.13;1.10;;;29.80;99.90;;;;;;5021667;28;20200;-68
2022/07/30 12:10:24;;;;;;;0.80;0.80;;;29.70;99.90;;;;;;5028042;28;20352;-70
2022/07/30 12:12:51;;;;;;;1.17;0.90;;;29.90;99.90;;;;;;5030176;28;20279;-69
2022/07/30 12:15:32;;;;;;;0.68;0.68;;;29.90;99.90;;;;;;5025073;28;20209;-70
2022/07/30 12:18:00;;;;;;;0.93;0.93;;;29.70;99.90;;;;;;5028184;28;20200;-71
2022/07/30 12:20:28;;;;;;;1.05;0.80;;;29.40;99.90;;;;;;5030382;28;20228;-69
2022/07/30 12:22:57;;;;;;;0.75;0.75;;;29.20;99.90;;;;;;5025229;28;20201;-70
2022/07/30 12:25:25;;;;;;;0.70;0.70;;;29.40;99.90;;;;;;5023598;28;20201;-70
2022/07/30 12:27:52;;;;;;;1.23;0.93;;;29.70;99.90;;;;;;5027600;28;20307;-69
2022/07/30 12:30:20;;;;;;;0.80;0.80;;;30.20;99.90;;;;;;5030266;28;20208;-70
2022/07/30 12:32:47;;;;;;;0.70;0.70;;;30.50;99.90;;;;;;5028914;28;20197;-70
2022/07/30 12:35:14;;;;;;;0.90;0.90;;;30.80;99.90;;;;;;5032505;28;20279;-70
2022/07/30 12:38:01;;;;;;;1.13;0.80;;;30.70;99.90;;;;;;5025068;28;20220;-69
2022/07/30 12:40:30;;;;;;;1.05;1.05;;;30.90;99.90;;;;;;5029309;28;20215;-71
2022/07/30 12:42:57;;;;;;;0.75;0.75;;;31.10;99.90;;;;;;5032469;28;20318;-69
2022/07/30 12:45:29;;;;;;;1.00;1.00;;;31.00;99.90;;;;;;5029517;28;20630;-70
2022/07/30 12:47:56;;;;;;;0.88;0.88;;;30.60;99.80;;;;;;5032175;28;20748;-70
2022/07/30 12:50:23;;;;;;;0.73;0.73;;;30.20;99.80;;;;;;5029005;28;20648;-69
2022/07/30 12:52:51;;;;;;;1.15;1.10;;;29.90;99.90;;;;;;5030273;28;20230;-69
2022/07/30 12:55:20;;;;;;;1.08;0.90;;;29.80;99.90;;;;;;5036574;28;20212;-69
2022/07/30 12:57:59;;;;;;;1.48;0.90;;;29.80;99.90;;;;;;5033014;28;20228;-70
2022/07/30 13:00:28;;;;;;;1.13;0.85;;;30.20;99.90;;;;;;5035505;28;20258;-68